21分钟前
罗盘
风向 的 风向 的 风向 到 风向 360° Priština International Airport 17/35
风: 5 千吨, 2 beaufort
0 0 0.17778093859221 500 0.32299085377319 1.500 0.47075341907445 3.000 0.62138884920159 5.000 0.8022287624727 8.000 0.90566318494517 10.000
SCT 4.000 ft
METAR BKPR 181130Z 36005KT 330V030 9999 SCT040 15/08 Q1023 NOSIG

METAR定义 | 嵌入

24小时趋势

航班类别VFRLIFR
温度15 °C7 °C
风速5 千吨0 千吨
能见度10 公里+0 米

更多历史数据

下载我们的安卓应用程序

从你的主屏幕上轻松地访问你的航空天气。
只需一次付费,您就可以获得无广告的体验。

您会帮助我们保持Metar-Taf.com正常运行吗?
您的贡献有助于网站的进一步开发并支付费用。

没有更多广告

您是捐款5美元还是更多?然后,我们将永远不会再向您展示广告,这是我们永恒的感谢!
捐赠前先登录

METAR Priština International Airport

Priština International Airport是Prishtina,阿尔巴尼亚中的大型机场。 机场有{a,plural,=1{一条跑道} other{#跑道}}: 17/35

该报告是针对2021年10月18日 13:30, 当地时间上的Priština International Airport所做的。

机场观察

风来自北 (360°)方向,速度为5 千吨。 风向在北北西 (330°)和北北东 (030°)之间变化。

可见度为10 公里 或者更多。

有疏云,零星散落的云朵在4.000 ft的高度。 没有观察到天花板。

温度和风寒是15 °C。 露点为8 °C,相对湿度为63%。 海平面上的气压为1023 压力 (QNH)。

白天

今天,太阳从06:52升起,在17:49降落。 这适用于Priština International Airport,世界夏令时可能有所不同。 当地时间与世界标准时间之间的时差为+2 小时。 夏令时目前正在进行中。

公司介绍

我们没有关于这个机场的公司信息。

体会

到Vliegles.nl去找飞行课程,跳伞和其他飞行体验。 浏览页面,了解Priština International Airport附近所有可用的活动。 你也可以使用搜索功能来寻找你所在地附近的特定飞行课程、跳伞或其他飞行体验。

您是否要在网站上Priština International Airport飞行的天气? 阅读更多   自由!